sensor_id;sensor_type;location;lat;lon;timestamp;pressure;altitude;pressure_sealevel;temperature;humidity
8101;BME280;4093;53.470;9.832;2022-07-06T00:01:11;102194.69;;;19.02;72.01
8101;BME280;4093;53.470;9.832;2022-07-06T00:03:37;102202.81;;;18.93;72.13
8101;BME280;4093;53.470;9.832;2022-07-06T00:06:04;102200.72;;;19.04;71.18
8101;BME280;4093;53.470;9.832;2022-07-06T00:08:31;102199.31;;;18.92;72.44
8101;BME280;4093;53.470;9.832;2022-07-06T00:10:58;102185.41;;;18.58;73.74
8101;BME280;4093;53.470;9.832;2022-07-06T00:13:25;102203.03;;;18.85;72.04
8101;BME280;4093;53.470;9.832;2022-07-06T00:15:52;102207.25;;;18.91;71.59
8101;BME280;4093;53.470;9.832;2022-07-06T00:18:18;102203.63;;;18.95;71.95
8101;BME280;4093;53.470;9.832;2022-07-06T00:20:45;102208.69;;;19.01;71.40
8101;BME280;4093;53.470;9.832;2022-07-06T00:23:12;102210.75;;;19.19;71.38
8101;BME280;4093;53.470;9.832;2022-07-06T00:25:39;102202.66;;;18.99;71.87
8101;BME280;4093;53.470;9.832;2022-07-06T00:28:06;102218.63;;;19.19;71.28
8101;BME280;4093;53.470;9.832;2022-07-06T00:30:33;102204.47;;;19.25;70.16
8101;BME280;4093;53.470;9.832;2022-07-06T00:33:00;102205.25;;;19.29;70.37
8101;BME280;4093;53.470;9.832;2022-07-06T00:35:26;102201.13;;;19.20;70.78
8101;BME280;4093;53.470;9.832;2022-07-06T00:37:53;102195.97;;;19.17;70.63
8101;BME280;4093;53.470;9.832;2022-07-06T00:40:20;102199.34;;;19.22;71.00
8101;BME280;4093;53.470;9.832;2022-07-06T00:42:47;102205.28;;;19.27;70.92
8101;BME280;4093;53.470;9.832;2022-07-06T00:45:17;102180.00;;;18.64;73.03
8101;BME280;4093;53.470;9.832;2022-07-06T00:47:44;102193.56;;;18.80;72.36
8101;BME280;4093;53.470;9.832;2022-07-06T00:50:13;102184.94;;;18.76;71.88
8101;BME280;4093;53.470;9.832;2022-07-06T00:52:48;102199.47;;;18.88;72.27
8101;BME280;4093;53.470;9.832;2022-07-06T00:55:17;102200.38;;;18.87;71.91
8101;BME280;4093;53.470;9.832;2022-07-06T00:57:45;102185.13;;;18.68;72.55
8101;BME280;4093;53.470;9.832;2022-07-06T01:00:14;102195.53;;;18.71;72.62
8101;BME280;4093;53.470;9.832;2022-07-06T01:02:42;102199.50;;;18.86;72.23
8101;BME280;4093;53.470;9.832;2022-07-06T01:05:11;102202.25;;;18.82;72.19
8101;BME280;4093;53.470;9.832;2022-07-06T01:07:40;102205.34;;;18.96;71.70
8101;BME280;4093;53.470;9.832;2022-07-06T01:10:08;102191.16;;;18.70;72.68
8101;BME280;4093;53.470;9.832;2022-07-06T01:12:36;102209.03;;;18.89;72.11
8101;BME280;4093;53.470;9.832;2022-07-06T01:15:05;102188.56;;;18.70;71.92
8101;BME280;4093;53.470;9.832;2022-07-06T01:17:32;102194.34;;;18.83;72.32
8101;BME280;4093;53.470;9.832;2022-07-06T01:20:07;102184.69;;;18.53;73.89
8101;BME280;4093;53.470;9.832;2022-07-06T01:22:34;102204.88;;;18.82;72.61
8101;BME280;4093;53.470;9.832;2022-07-06T01:25:01;102206.56;;;18.84;72.31
8101;BME280;4093;53.470;9.832;2022-07-06T01:27:27;102202.44;;;18.76;72.75
8101;BME280;4093;53.470;9.832;2022-07-06T01:29:54;102198.97;;;18.73;73.22
8101;BME280;4093;53.470;9.832;2022-07-06T01:32:21;102199.19;;;18.64;73.04
8101;BME280;4093;53.470;9.832;2022-07-06T01:34:48;102204.81;;;18.83;72.87
8101;BME280;4093;53.470;9.832;2022-07-06T01:37:15;102185.63;;;18.50;74.01
8101;BME280;4093;53.470;9.832;2022-07-06T01:39:42;102198.16;;;18.71;72.38
8101;BME280;4093;53.470;9.832;2022-07-06T01:42:08;102182.03;;;18.54;73.39
8101;BME280;4093;53.470;9.832;2022-07-06T01:44:35;102165.09;;;18.35;74.16
8101;BME280;4093;53.470;9.832;2022-07-06T01:47:02;102183.19;;;18.44;74.38
8101;BME280;4093;53.470;9.832;2022-07-06T01:49:28;102190.47;;;18.64;73.23
8101;BME280;4093;53.470;9.832;2022-07-06T01:51:55;102200.38;;;18.87;72.09
8101;BME280;4093;53.470;9.832;2022-07-06T01:54:23;102184.44;;;18.62;72.88
8101;BME280;4093;53.470;9.832;2022-07-06T01:56:49;102192.59;;;18.51;73.45
8101;BME280;4093;53.470;9.832;2022-07-06T01:59:16;102193.28;;;18.58;73.75
8101;BME280;4093;53.470;9.832;2022-07-06T02:01:42;102192.34;;;18.60;73.59
8101;BME280;4093;53.470;9.832;2022-07-06T02:04:09;102203.59;;;18.64;73.56
8101;BME280;4093;53.470;9.832;2022-07-06T02:06:35;102190.38;;;18.36;75.04
8101;BME280;4093;53.470;9.832;2022-07-06T02:09:02;102197.19;;;18.43;74.45
8101;BME280;4093;53.470;9.832;2022-07-06T02:11:30;102188.75;;;18.32;75.21
8101;BME280;4093;53.470;9.832;2022-07-06T02:13:57;102187.81;;;18.34;75.09
8101;BME280;4093;53.470;9.832;2022-07-06T02:16:23;102185.97;;;18.05;76.12
8101;BME280;4093;53.470;9.832;2022-07-06T02:18:50;102201.16;;;18.23;75.99
8101;BME280;4093;53.470;9.832;2022-07-06T02:21:16;102204.53;;;18.29;74.98
8101;BME280;4093;53.470;9.832;2022-07-06T02:23:43;102197.22;;;18.07;75.85
8101;BME280;4093;53.470;9.832;2022-07-06T02:26:10;102200.53;;;18.15;75.80
8101;BME280;4093;53.470;9.832;2022-07-06T02:28:38;102210.94;;;18.18;75.72
8101;BME280;4093;53.470;9.832;2022-07-06T02:31:04;102212.00;;;18.44;75.02
8101;BME280;4093;53.470;9.832;2022-07-06T02:33:31;102212.19;;;18.36;75.26
8101;BME280;4093;53.470;9.832;2022-07-06T02:35:57;102197.84;;;18.17;75.30
8101;BME280;4093;53.470;9.832;2022-07-06T02:38:24;102166.50;;;17.79;77.40
8101;BME280;4093;53.470;9.832;2022-07-06T02:40:51;102205.22;;;18.02;77.50
8101;BME280;4093;53.470;9.832;2022-07-06T02:43:17;102212.09;;;18.41;75.03
8101;BME280;4093;53.470;9.832;2022-07-06T02:45:45;102210.13;;;18.49;74.75
8101;BME280;4093;53.470;9.832;2022-07-06T02:48:12;102184.66;;;17.87;76.41
8101;BME280;4093;53.470;9.832;2022-07-06T02:50:39;102195.59;;;18.03;76.93
8101;BME280;4093;53.470;9.832;2022-07-06T02:53:05;102174.34;;;17.81;77.26
8101;BME280;4093;53.470;9.832;2022-07-06T02:55:32;102189.09;;;17.84;77.76
8101;BME280;4093;53.470;9.832;2022-07-06T02:57:59;102196.38;;;18.07;76.30
8101;BME280;4093;53.470;9.832;2022-07-06T03:00:26;102201.66;;;18.05;76.72
8101;BME280;4093;53.470;9.832;2022-07-06T03:02:53;102208.22;;;18.21;76.11
8101;BME280;4093;53.470;9.832;2022-07-06T03:05:20;102147.66;;;17.65;76.05
8101;BME280;4093;53.470;9.832;2022-07-06T03:07:47;102209.19;;;18.17;75.60
8101;BME280;4093;53.470;9.832;2022-07-06T03:10:13;102212.72;;;18.16;75.99
8101;BME280;4093;53.470;9.832;2022-07-06T03:12:40;102223.63;;;18.34;74.60
8101;BME280;4093;53.470;9.832;2022-07-06T03:15:07;102212.78;;;18.47;74.50
8101;BME280;4093;53.470;9.832;2022-07-06T03:17:34;102207.31;;;18.22;75.34
8101;BME280;4093;53.470;9.832;2022-07-06T03:20:03;102221.66;;;18.42;74.29
8101;BME280;4093;53.470;9.832;2022-07-06T03:22:30;102208.06;;;18.27;74.96
8101;BME280;4093;53.470;9.832;2022-07-06T03:24:56;102202.22;;;18.16;74.71
8101;BME280;4093;53.470;9.832;2022-07-06T03:27:23;102196.47;;;18.03;75.78
8101;BME280;4093;53.470;9.832;2022-07-06T03:29:50;102213.78;;;18.08;75.92
8101;BME280;4093;53.470;9.832;2022-07-06T03:32:16;102217.25;;;18.10;75.73
8101;BME280;4093;53.470;9.832;2022-07-06T03:34:43;102221.25;;;18.24;75.44
8101;BME280;4093;53.470;9.832;2022-07-06T03:37:10;102217.56;;;18.32;74.68
8101;BME280;4093;53.470;9.832;2022-07-06T03:39:37;102205.59;;;18.21;75.04
8101;BME280;4093;53.470;9.832;2022-07-06T03:42:04;102205.84;;;18.12;75.33
8101;BME280;4093;53.470;9.832;2022-07-06T03:44:30;102220.09;;;18.35;75.03
8101;BME280;4093;53.470;9.832;2022-07-06T03:46:57;102219.56;;;18.20;75.57
8101;BME280;4093;53.470;9.832;2022-07-06T03:49:23;102210.94;;;18.18;75.78
8101;BME280;4093;53.470;9.832;2022-07-06T03:51:52;102213.41;;;18.23;75.44
8101;BME280;4093;53.470;9.832;2022-07-06T03:54:20;102215.31;;;18.16;75.75
8101;BME280;4093;53.470;9.832;2022-07-06T03:56:47;102216.56;;;18.36;75.19
8101;BME280;4093;53.470;9.832;2022-07-06T03:59:13;102226.69;;;18.49;74.86
8101;BME280;4093;53.470;9.832;2022-07-06T04:01:40;102215.88;;;18.29;75.17
8101;BME280;4093;53.470;9.832;2022-07-06T04:04:07;102222.94;;;18.27;75.58
8101;BME280;4093;53.470;9.832;2022-07-06T04:06:33;102221.53;;;18.46;74.33
8101;BME280;4093;53.470;9.832;2022-07-06T04:09:00;102212.09;;;18.41;75.00
8101;BME280;4093;53.470;9.832;2022-07-06T04:11:28;102223.69;;;18.63;74.21
8101;BME280;4093;53.470;9.832;2022-07-06T04:13:55;102222.00;;;18.62;73.91
8101;BME280;4093;53.470;9.832;2022-07-06T04:16:22;102221.00;;;18.66;73.48
8101;BME280;4093;53.470;9.832;2022-07-06T04:18:48;102222.75;;;18.66;73.95
8101;BME280;4093;53.470;9.832;2022-07-06T04:21:15;102210.44;;;18.69;73.50
8101;BME280;4093;53.470;9.832;2022-07-06T04:23:41;102205.28;;;18.34;75.84
8101;BME280;4093;53.470;9.832;2022-07-06T04:26:08;102221.38;;;18.53;74.78
8101;BME280;4093;53.470;9.832;2022-07-06T04:28:36;102215.00;;;18.61;74.13
8101;BME280;4093;53.470;9.832;2022-07-06T04:31:03;102228.13;;;18.94;73.10
8101;BME280;4093;53.470;9.832;2022-07-06T04:33:30;102227.94;;;19.00;73.23
8101;BME280;4093;53.470;9.832;2022-07-06T04:35:56;102216.88;;;18.90;72.70
8101;BME280;4093;53.470;9.832;2022-07-06T04:38:23;102192.50;;;18.54;73.93
8101;BME280;4093;53.470;9.832;2022-07-06T04:40:49;102205.06;;;18.76;73.16
8101;BME280;4093;53.470;9.832;2022-07-06T04:43:16;102197.75;;;18.54;73.79
8101;BME280;4093;53.470;9.832;2022-07-06T04:45:44;102190.28;;;18.40;74.47
8101;BME280;4093;53.470;9.832;2022-07-06T04:48:10;102202.72;;;18.63;73.20
8101;BME280;4093;53.470;9.832;2022-07-06T04:50:37;102192.34;;;18.27;74.92
8101;BME280;4093;53.470;9.832;2022-07-06T04:53:03;102205.78;;;18.48;74.23
8101;BME280;4093;53.470;9.832;2022-07-06T04:55:30;102207.59;;;18.46;74.06
8101;BME280;4093;53.470;9.832;2022-07-06T04:57:56;102211.47;;;18.31;74.98
8101;BME280;4093;53.470;9.832;2022-07-06T05:00:23;102208.63;;;18.39;74.69
8101;BME280;4093;53.470;9.832;2022-07-06T05:02:51;102214.53;;;18.47;74.13
8101;BME280;4093;53.470;9.832;2022-07-06T05:05:18;102207.00;;;18.35;74.55
8101;BME280;4093;53.470;9.832;2022-07-06T05:07:44;102214.38;;;18.53;73.85
8101;BME280;4093;53.470;9.832;2022-07-06T05:10:11;102221.22;;;18.59;74.24
8101;BME280;4093;53.470;9.832;2022-07-06T05:12:38;102195.47;;;18.08;76.04
8101;BME280;4093;53.470;9.832;2022-07-06T05:15:07;102200.44;;;18.18;75.38
8101;BME280;4093;53.470;9.832;2022-07-06T05:17:33;102224.22;;;18.78;73.63
8101;BME280;4093;53.470;9.832;2022-07-06T05:20:01;102220.84;;;18.72;73.05
8101;BME280;4093;53.470;9.832;2022-07-06T05:22:28;102180.13;;;17.94;75.94
8101;BME280;4093;53.470;9.832;2022-07-06T05:24:55;102186.06;;;18.00;75.95
8101;BME280;4093;53.470;9.832;2022-07-06T05:27:21;102215.44;;;18.46;74.61
8101;BME280;4093;53.470;9.832;2022-07-06T05:29:48;102219.94;;;18.73;72.54
8101;BME280;4093;53.470;9.832;2022-07-06T05:32:14;102198.13;;;18.40;73.76
8101;BME280;4093;53.470;9.832;2022-07-06T05:34:41;102179.41;;;18.21;75.12
8101;BME280;4093;53.470;9.832;2022-07-06T05:37:09;102188.59;;;18.36;74.57
8101;BME280;4093;53.470;9.832;2022-07-06T05:39:35;102218.53;;;18.60;73.84
8101;BME280;4093;53.470;9.832;2022-07-06T05:42:04;102212.06;;;18.75;72.55
8101;BME280;4093;53.470;9.832;2022-07-06T05:44:31;102225.91;;;19.10;72.06
8101;BME280;4093;53.470;9.832;2022-07-06T05:46:57;102235.50;;;19.40;70.32
8101;BME280;4093;53.470;9.832;2022-07-06T05:49:44;102224.75;;;19.48;70.03
8101;BME280;4093;53.470;9.832;2022-07-06T05:52:29;102214.72;;;19.33;70.21
8101;BME280;4093;53.470;9.832;2022-07-06T05:54:56;102219.00;;;19.37;69.59
8101;BME280;4093;53.470;9.832;2022-07-06T05:57:23;102217.44;;;19.59;68.78
8101;BME280;4093;53.470;9.832;2022-07-06T05:59:49;102198.22;;;19.29;69.36
8101;BME280;4093;53.470;9.832;2022-07-06T06:02:16;102226.41;;;20.07;66.45
8101;BME280;4093;53.470;9.832;2022-07-06T06:04:42;102208.06;;;20.05;66.67
8101;BME280;4093;53.470;9.832;2022-07-06T06:07:09;102181.06;;;19.47;67.67
8101;BME280;4093;53.470;9.832;2022-07-06T06:09:37;102203.25;;;19.93;66.23
8101;BME280;4093;53.470;9.832;2022-07-06T06:12:04;102154.88;;;19.74;66.28
8101;BME280;4093;53.470;9.832;2022-07-06T06:14:30;102206.78;;;20.19;65.54
8101;BME280;4093;53.470;9.832;2022-07-06T06:16:57;102166.84;;;19.54;66.13
8101;BME280;4093;53.470;9.832;2022-07-06T06:19:24;102172.91;;;19.56;66.48
8101;BME280;4093;53.470;9.832;2022-07-06T06:21:50;102182.13;;;19.41;68.30
8101;BME280;4093;53.470;9.832;2022-07-06T06:24:17;102184.28;;;19.27;69.03
8101;BME280;4093;53.470;9.832;2022-07-06T06:26:45;102200.00;;;19.57;68.01
8101;BME280;4093;53.470;9.832;2022-07-06T06:29:12;102186.88;;;19.57;66.53
8101;BME280;4093;53.470;9.832;2022-07-06T06:31:39;102186.81;;;19.58;67.46
8101;BME280;4093;53.470;9.832;2022-07-06T06:34:05;102209.50;;;19.89;69.17
8101;BME280;4093;53.470;9.832;2022-07-06T06:36:32;102210.28;;;20.18;68.93
8101;BME280;4093;53.470;9.832;2022-07-06T06:38:58;102186.03;;;19.56;69.99
8101;BME280;4093;53.470;9.832;2022-07-06T06:41:27;102176.53;;;19.52;68.51
8101;BME280;4093;53.470;9.832;2022-07-06T06:43:55;102200.38;;;20.01;67.81
8101;BME280;4093;53.470;9.832;2022-07-06T06:46:21;102209.59;;;19.86;68.77
8101;BME280;4093;53.470;9.832;2022-07-06T06:48:48;102192.34;;;19.79;70.07
8101;BME280;4093;53.470;9.832;2022-07-06T06:51:14;102209.00;;;20.04;69.75
8101;BME280;4093;53.470;9.832;2022-07-06T06:53:41;102208.38;;;20.48;67.31
8101;BME280;4093;53.470;9.832;2022-07-06T06:56:08;102220.81;;;20.68;67.83
8101;BME280;4093;53.470;9.832;2022-07-06T06:58:35;102202.16;;;20.25;68.75
8101;BME280;4093;53.470;9.832;2022-07-06T07:01:03;102201.09;;;20.31;67.73
8101;BME280;4093;53.470;9.832;2022-07-06T07:03:30;102218.09;;;20.71;65.74
8101;BME280;4093;53.470;9.832;2022-07-06T07:05:57;102233.09;;;21.16;64.91
8101;BME280;4093;53.470;9.832;2022-07-06T07:08:26;102214.38;;;21.91;62.63
8101;BME280;4093;53.470;9.832;2022-07-06T07:10:53;102219.97;;;22.26;61.46
8101;BME280;4093;53.470;9.832;2022-07-06T07:13:19;102231.28;;;22.87;59.75
8101;BME280;4093;53.470;9.832;2022-07-06T07:15:46;102203.88;;;22.71;58.46
8101;BME280;4093;53.470;9.832;2022-07-06T07:18:14;102208.75;;;22.80;57.88
8101;BME280;4093;53.470;9.832;2022-07-06T07:20:41;102183.66;;;22.32;59.80
8101;BME280;4093;53.470;9.832;2022-07-06T07:23:07;102176.28;;;22.20;58.38
8101;BME280;4093;53.470;9.832;2022-07-06T07:25:34;102180.00;;;22.14;58.80
8101;BME280;4093;53.470;9.832;2022-07-06T07:28:04;102146.53;;;21.10;60.71
8101;BME280;4093;53.470;9.832;2022-07-06T07:30:30;102173.75;;;21.75;59.74
8101;BME280;4093;53.470;9.832;2022-07-06T07:32:57;102170.84;;;21.60;60.72
8101;BME280;4093;53.470;9.832;2022-07-06T07:35:27;102167.31;;;21.39;61.41
8101;BME280;4093;53.470;9.832;2022-07-06T07:37:54;102155.03;;;20.93;63.32
8101;BME280;4093;53.470;9.832;2022-07-06T07:40:20;102150.16;;;20.60;63.83
8101;BME280;4093;53.470;9.832;2022-07-06T07:42:48;102173.34;;;20.72;63.82
8101;BME280;4093;53.470;9.832;2022-07-06T07:45:14;102165.84;;;20.62;64.56
8101;BME280;4093;53.470;9.832;2022-07-06T07:47:41;102176.28;;;20.88;63.06
8101;BME280;4093;53.470;9.832;2022-07-06T07:50:09;102185.50;;;21.22;61.97
8101;BME280;4093;53.470;9.832;2022-07-06T07:52:37;102188.84;;;21.49;62.82
8101;BME280;4093;53.470;9.832;2022-07-06T07:55:05;102177.13;;;21.34;62.14
8101;BME280;4093;53.470;9.832;2022-07-06T07:57:32;102167.69;;;20.83;63.56
8101;BME280;4093;53.470;9.832;2022-07-06T07:59:58;102189.94;;;21.43;63.09
8101;BME280;4093;53.470;9.832;2022-07-06T08:02:25;102177.53;;;21.47;62.06
8101;BME280;4093;53.470;9.832;2022-07-06T08:04:52;102168.25;;;20.68;65.12
8101;BME280;4093;53.470;9.832;2022-07-06T08:07:18;102181.41;;;20.91;64.24
8101;BME280;4093;53.470;9.832;2022-07-06T08:09:46;102169.13;;;20.43;65.83
8101;BME280;4093;53.470;9.832;2022-07-06T08:12:13;102179.97;;;20.34;65.39
8101;BME280;4093;53.470;9.832;2022-07-06T08:14:40;102207.38;;;21.00;64.08
8101;BME280;4093;53.470;9.832;2022-07-06T08:17:06;102178.94;;;20.38;64.72
8101;BME280;4093;53.470;9.832;2022-07-06T08:19:33;102189.69;;;20.30;64.93
8101;BME280;4093;53.470;9.832;2022-07-06T08:22:00;102185.94;;;19.31;66.45
8101;BME280;4093;53.470;9.832;2022-07-06T08:24:32;102211.78;;;19.15;69.81
8101;BME280;4093;53.470;9.832;2022-07-06T08:27:00;102220.81;;;19.35;71.13
8101;BME280;4093;53.470;9.832;2022-07-06T08:29:28;102193.28;;;18.58;73.83
8101;BME280;4093;53.470;9.832;2022-07-06T08:31:54;102245.94;;;19.12;74.59
8101;BME280;4093;53.470;9.832;2022-07-06T08:34:21;102238.19;;;19.09;75.31
8101;BME280;4093;53.470;9.832;2022-07-06T08:36:48;102257.75;;;19.27;74.10
8101;BME280;4093;53.470;9.832;2022-07-06T08:39:15;102268.59;;;19.45;73.48
8101;BME280;4093;53.470;9.832;2022-07-06T08:41:43;102273.09;;;19.71;73.53
8101;BME280;4093;53.470;9.832;2022-07-06T08:44:14;102284.31;;;19.46;75.68
8101;BME280;4093;53.470;9.832;2022-07-06T08:46:41;102249.41;;;19.42;74.36
8101;BME280;4093;53.470;9.832;2022-07-06T08:49:08;102283.97;;;19.86;73.46
8101;BME280;4093;53.470;9.832;2022-07-06T08:51:35;102283.84;;;19.91;72.66
8101;BME280;4093;53.470;9.832;2022-07-06T08:54:03;102263.56;;;19.68;74.47
8101;BME280;4093;53.470;9.832;2022-07-06T08:56:30;102282.44;;;19.79;73.53
8101;BME280;4093;53.470;9.832;2022-07-06T08:58:57;102297.16;;;20.11;72.88
8101;BME280;4093;53.470;9.832;2022-07-06T09:01:26;102260.16;;;20.19;71.29
8101;BME280;4093;53.470;9.832;2022-07-06T09:03:54;102283.63;;;20.24;71.30
8101;BME280;4093;53.470;9.832;2022-07-06T09:06:24;102290.78;;;20.47;69.37
8101;BME280;4093;53.470;9.832;2022-07-06T09:08:53;102272.13;;;20.54;69.92
8101;BME280;4093;53.470;9.832;2022-07-06T09:11:21;102293.00;;;21.09;68.61
8101;BME280;4093;53.470;9.832;2022-07-06T09:13:48;102283.75;;;21.21;68.04
8101;BME280;4093;53.470;9.832;2022-07-06T09:16:15;102255.63;;;20.74;67.19
8101;BME280;4093;53.470;9.832;2022-07-06T09:18:45;102283.53;;;21.03;66.05
8101;BME280;4093;53.470;9.832;2022-07-06T09:21:22;102224.72;;;20.58;66.14
8101;BME280;4093;53.470;9.832;2022-07-06T09:23:53;102237.16;;;20.26;68.08
8101;BME280;4093;53.470;9.832;2022-07-06T09:26:19;102284.09;;;21.59;66.05
8101;BME280;4093;53.470;9.832;2022-07-06T09:28:46;102288.28;;;22.30;63.01
8101;BME280;4093;53.470;9.832;2022-07-06T09:31:13;102277.09;;;22.25;61.57
8101;BME280;4093;53.470;9.832;2022-07-06T09:33:54;102252.22;;;21.88;61.87
8101;BME280;4093;53.470;9.832;2022-07-06T09:36:38;102280.06;;;23.18;60.75
8101;BME280;4093;53.470;9.832;2022-07-06T09:39:18;102206.06;;;22.22;61.46
8101;BME280;4093;53.470;9.832;2022-07-06T09:41:45;102247.28;;;22.44;61.69
8101;BME280;4093;53.470;9.832;2022-07-06T09:44:12;102263.25;;;22.81;62.29
8101;BME280;4093;53.470;9.832;2022-07-06T09:46:40;102245.97;;;22.74;61.36
8101;BME280;4093;53.470;9.832;2022-07-06T09:49:08;102225.75;;;22.34;62.40
8101;BME280;4093;53.470;9.832;2022-07-06T09:51:36;102212.84;;;22.48;60.24
8101;BME280;4093;53.470;9.832;2022-07-06T09:54:05;102213.41;;;22.14;61.32
8101;BME280;4093;53.470;9.832;2022-07-06T09:56:36;102197.19;;;22.44;61.81
8101;BME280;4093;53.470;9.832;2022-07-06T09:59:15;102234.66;;;22.52;60.52
8101;BME280;4093;53.470;9.832;2022-07-06T10:01:42;102234.06;;;23.05;57.94
8101;BME280;4093;53.470;9.832;2022-07-06T10:04:12;102225.03;;;22.90;58.89
8101;BME280;4093;53.470;9.832;2022-07-06T10:06:41;102205.31;;;21.97;58.97
8101;BME280;4093;53.470;9.832;2022-07-06T10:09:09;102225.03;;;22.51;56.36
8101;BME280;4093;53.470;9.832;2022-07-06T10:11:38;102208.28;;;22.52;59.23
8101;BME280;4093;53.470;9.832;2022-07-06T10:14:06;102212.47;;;22.76;57.54
8101;BME280;4093;53.470;9.832;2022-07-06T10:16:35;102212.06;;;22.85;58.38
8101;BME280;4093;53.470;9.832;2022-07-06T10:19:05;102179.34;;;22.50;59.07
8101;BME280;4093;53.470;9.832;2022-07-06T10:21:35;102185.63;;;22.48;57.97
8101;BME280;4093;53.470;9.832;2022-07-06T10:24:03;102188.81;;;22.94;57.51
8101;BME280;4093;53.470;9.832;2022-07-06T10:26:30;102196.38;;;23.39;56.27
8101;BME280;4093;53.470;9.832;2022-07-06T10:28:58;102173.06;;;23.11;54.81
8101;BME280;4093;53.470;9.832;2022-07-06T10:31:26;102134.91;;;22.22;56.17
8101;BME280;4093;53.470;9.832;2022-07-06T10:33:55;102172.16;;;22.54;56.99
8101;BME280;4093;53.470;9.832;2022-07-06T10:36:22;102154.75;;;21.88;58.74
8101;BME280;4093;53.470;9.832;2022-07-06T10:38:52;102175.59;;;22.35;58.63
8101;BME280;4093;53.470;9.832;2022-07-06T10:41:30;102151.63;;;21.58;58.98
8101;BME280;4093;53.470;9.832;2022-07-06T10:43:56;102159.94;;;21.90;58.30
8101;BME280;4093;53.470;9.832;2022-07-06T10:46:28;102170.50;;;21.24;61.73
8101;BME280;4093;53.470;9.832;2022-07-06T10:48:56;102163.19;;;21.32;61.14
8101;BME280;4093;53.470;9.832;2022-07-06T10:51:25;102133.06;;;20.72;62.13
8101;BME280;4093;53.470;9.832;2022-07-06T10:53:57;102179.25;;;21.24;61.10
8101;BME280;4093;53.470;9.832;2022-07-06T10:56:32;102169.06;;;20.93;63.01
8101;BME280;4093;53.470;9.832;2022-07-06T10:59:02;102160.78;;;20.57;64.22
8101;BME280;4093;53.470;9.832;2022-07-06T11:01:29;102185.41;;;21.01;63.68
8101;BME280;4093;53.470;9.832;2022-07-06T11:04:06;102161.00;;;19.99;67.03
8101;BME280;4093;53.470;9.832;2022-07-06T11:06:34;102164.63;;;20.47;65.95
8101;BME280;4093;53.470;9.832;2022-07-06T11:09:03;102208.63;;;21.14;65.58
8101;BME280;4093;53.470;9.832;2022-07-06T11:11:39;102222.34;;;21.45;64.47
8101;BME280;4093;53.470;9.832;2022-07-06T11:14:08;102190.88;;;21.19;63.67
8101;BME280;4093;53.470;9.832;2022-07-06T11:16:37;102208.72;;;21.34;65.26
8101;BME280;4093;53.470;9.832;2022-07-06T11:19:09;102215.16;;;21.71;63.88
8101;BME280;4093;53.470;9.832;2022-07-06T11:21:43;102233.25;;;22.63;61.58
8101;BME280;4093;53.470;9.832;2022-07-06T11:24:14;102229.19;;;23.33;59.48
8101;BME280;4093;53.470;9.832;2022-07-06T11:26:43;102222.22;;;24.05;56.73
8101;BME280;4093;53.470;9.832;2022-07-06T11:29:11;102219.59;;;24.22;57.02
8101;BME280;4093;53.470;9.832;2022-07-06T11:31:39;102207.53;;;23.99;56.97
8101;BME280;4093;53.470;9.832;2022-07-06T11:34:07;102171.69;;;23.21;55.78
8101;BME280;4093;53.470;9.832;2022-07-06T11:36:34;102185.31;;;23.67;55.93
8101;BME280;4093;53.470;9.832;2022-07-06T11:39:01;102167.69;;;23.68;54.54
8101;BME280;4093;53.470;9.832;2022-07-06T11:41:29;102158.22;;;23.08;56.04
8101;BME280;4093;53.470;9.832;2022-07-06T11:43:56;102144.63;;;22.99;56.11
8101;BME280;4093;53.470;9.832;2022-07-06T11:46:25;102147.44;;;22.56;58.24
8101;BME280;4093;53.470;9.832;2022-07-06T11:48:54;102156.75;;;22.45;59.72
8101;BME280;4093;53.470;9.832;2022-07-06T11:51:21;102156.28;;;21.52;63.52
8101;BME280;4093;53.470;9.832;2022-07-06T11:53:49;102175.34;;;22.42;60.40
8101;BME280;4093;53.470;9.832;2022-07-06T11:56:17;102176.69;;;22.90;56.32
8101;BME280;4093;53.470;9.832;2022-07-06T11:58:49;102126.50;;;22.72;55.45
8101;BME280;4093;53.470;9.832;2022-07-06T12:01:15;102157.81;;;22.99;55.45
8101;BME280;4093;53.470;9.832;2022-07-06T12:03:42;102141.03;;;23.19;52.10
8101;BME280;4093;53.470;9.832;2022-07-06T12:06:14;102112.38;;;22.54;54.30
8101;BME280;4093;53.470;9.832;2022-07-06T12:08:42;102126.06;;;22.81;53.87
8101;BME280;4093;53.470;9.832;2022-07-06T12:11:10;102109.44;;;22.60;54.38
8101;BME280;4093;53.470;9.832;2022-07-06T12:13:37;102109.53;;;22.20;55.41
8101;BME280;4093;53.470;9.832;2022-07-06T12:16:13;102103.41;;;22.19;56.00
8101;BME280;4093;53.470;9.832;2022-07-06T12:18:42;102123.47;;;22.42;55.61
8101;BME280;4093;53.470;9.832;2022-07-06T12:21:10;102110.97;;;22.66;54.41
8101;BME280;4093;53.470;9.832;2022-07-06T12:23:40;102128.97;;;23.32;54.26
8101;BME280;4093;53.470;9.832;2022-07-06T12:26:07;102116.00;;;23.45;54.31
8101;BME280;4093;53.470;9.832;2022-07-06T12:28:35;102102.34;;;23.00;54.22
8101;BME280;4093;53.470;9.832;2022-07-06T12:31:02;102095.75;;;22.52;55.49
8101;BME280;4093;53.470;9.832;2022-07-06T12:33:30;102099.59;;;22.64;55.63
8101;BME280;4093;53.470;9.832;2022-07-06T12:35:57;102048.81;;;22.42;52.74
8101;BME280;4093;53.470;9.832;2022-07-06T12:38:24;102109.34;;;23.19;52.94
8101;BME280;4093;53.470;9.832;2022-07-06T12:40:51;102100.00;;;23.65;51.12
8101;BME280;4093;53.470;9.832;2022-07-06T12:43:36;102082.56;;;23.97;50.87
8101;BME280;4093;53.470;9.832;2022-07-06T12:46:26;102084.63;;;23.39;50.84
8101;BME280;4093;53.470;9.832;2022-07-06T12:48:55;102083.09;;;23.16;51.44
8101;BME280;4093;53.470;9.832;2022-07-06T12:51:22;102080.16;;;23.04;51.55
8101;BME280;4093;53.470;9.832;2022-07-06T12:53:48;102079.22;;;22.86;52.70
8101;BME280;4093;53.470;9.832;2022-07-06T12:56:16;102089.75;;;23.42;52.74
8101;BME280;4093;53.470;9.832;2022-07-06T12:58:57;102078.34;;;23.59;52.09
8101;BME280;4093;53.470;9.832;2022-07-06T13:01:24;102071.13;;;23.45;51.49
8101;BME280;4093;53.470;9.832;2022-07-06T13:03:57;102069.84;;;23.35;51.94
8101;BME280;4093;53.470;9.832;2022-07-06T13:06:29;102069.78;;;23.36;51.42
8101;BME280;4093;53.470;9.832;2022-07-06T13:08:56;102066.53;;;22.95;51.60
8101;BME280;4093;53.470;9.832;2022-07-06T13:11:22;102076.72;;;22.83;51.27
8101;BME280;4093;53.470;9.832;2022-07-06T13:13:49;102064.03;;;23.11;51.16